createdAt,value
2022-09-03T00:01:03.804Z,69.00
2022-09-03T00:03:37.675Z,69.10
2022-09-03T00:06:23.171Z,69.00
2022-09-03T00:09:00.186Z,69.10
2022-09-03T00:11:30.182Z,69.20
2022-09-03T00:13:56.842Z,69.00
2022-09-03T00:16:26.843Z,69.00
2022-09-03T00:18:57.587Z,69.10
2022-09-03T00:21:29.662Z,69.20
2022-09-03T00:23:57.846Z,69.20
2022-09-03T00:26:31.188Z,70.80
2022-09-03T00:29:03.708Z,69.30
2022-09-03T00:31:38.914Z,69.30
2022-09-03T00:34:26.966Z,69.10
2022-09-03T00:36:53.823Z,69.10
2022-09-03T00:39:21.814Z,69.20
2022-09-03T00:41:57.854Z,69.50
2022-09-03T00:44:33.841Z,69.20
2022-09-03T00:47:04.359Z,69.40
2022-09-03T00:49:33.989Z,70.00
2022-09-03T00:52:17.721Z,69.00
2022-09-03T00:54:48.154Z,69.00
2022-09-03T00:57:17.854Z,68.70
2022-09-03T00:59:57.617Z,68.70
2022-09-03T01:02:34.070Z,68.90
2022-09-03T01:05:30.034Z,68.70
2022-09-03T01:08:20.105Z,68.90
2022-09-03T01:10:46.773Z,68.90
2022-09-03T01:13:17.504Z,70.10
2022-09-03T01:15:48.508Z,69.00
2022-09-03T01:18:30.757Z,68.70
2022-09-03T01:21:23.803Z,68.80
2022-09-03T01:24:09.923Z,68.80
2022-09-03T01:26:42.815Z,68.80
2022-09-03T01:29:12.349Z,68.70
2022-09-03T01:31:53.254Z,68.80
2022-09-03T01:34:22.698Z,68.80
2022-09-03T01:37:04.378Z,68.60
2022-09-03T01:39:34.342Z,68.60
2022-09-03T01:42:20.251Z,68.70
2022-09-03T01:44:53.858Z,68.70
2022-09-03T01:47:36.295Z,68.70
2022-09-03T01:50:05.662Z,68.60
2022-09-03T01:52:51.035Z,68.60
2022-09-03T01:55:37.059Z,68.60
2022-09-03T01:58:09.304Z,68.70
2022-09-03T02:00:37.410Z,69.00
2022-09-03T02:03:06.851Z,68.80
2022-09-03T02:05:35.683Z,68.80
2022-09-03T02:08:07.247Z,69.70
2022-09-03T02:10:45.362Z,68.90
2022-09-03T02:13:15.691Z,68.80
2022-09-03T02:15:45.866Z,68.90
2022-09-03T02:18:20.995Z,69.00
2022-09-03T02:20:48.738Z,68.90
2022-09-03T02:23:16.014Z,68.80
2022-09-03T02:25:45.304Z,68.70
2022-09-03T02:28:17.498Z,68.60
2022-09-03T02:30:44.846Z,68.70
2022-09-03T02:33:11.662Z,68.40
2022-09-03T02:35:40.315Z,68.30
2022-09-03T02:38:21.533Z,68.90
2022-09-03T02:40:48.330Z,68.60
2022-09-03T02:43:18.846Z,68.80
2022-09-03T02:45:48.023Z,68.60
2022-09-03T02:48:17.596Z,68.70
2022-09-03T02:50:44.278Z,68.50
2022-09-03T02:53:11.032Z,69.70
2022-09-03T02:55:37.743Z,68.60
2022-09-03T02:58:06.870Z,68.60
2022-09-03T03:00:33.637Z,68.80
2022-09-03T03:03:00.342Z,68.60
2022-09-03T03:05:30.124Z,68.60
2022-09-03T03:07:58.592Z,68.60
2022-09-03T03:10:25.460Z,68.60
2022-09-03T03:12:52.278Z,68.60
2022-09-03T03:15:19.524Z,68.70
2022-09-03T03:17:46.240Z,68.60
2022-09-03T03:20:12.947Z,68.60
2022-09-03T03:22:39.611Z,68.70
2022-09-03T03:25:06.603Z,68.90
2022-09-03T03:27:33.263Z,68.80
2022-09-03T03:29:59.946Z,68.70
2022-09-03T03:32:26.930Z,68.90
2022-09-03T03:34:53.640Z,69.30
2022-09-03T03:37:20.366Z,68.90
2022-09-03T03:39:47.065Z,68.90
2022-09-03T03:42:14.319Z,69.10
2022-09-03T03:44:42.418Z,69.00
2022-09-03T03:47:09.079Z,68.80
2022-09-03T03:49:35.794Z,69.00
2022-09-03T03:52:04.413Z,69.10
2022-09-03T03:54:31.113Z,69.10
2022-09-03T03:56:57.958Z,68.60
2022-09-03T03:59:24.672Z,68.60
2022-09-03T04:01:51.642Z,68.90
2022-09-03T04:04:18.451Z,69.00
2022-09-03T04:06:45.146Z,68.60
2022-09-03T04:09:11.998Z,68.30
2022-09-03T04:11:39.166Z,68.60
2022-09-03T04:14:05.869Z,68.20
2022-09-03T04:16:33.077Z,68.40
2022-09-03T04:18:59.934Z,68.80
2022-09-03T04:21:28.583Z,70.00
2022-09-03T04:23:56.236Z,68.60
2022-09-03T04:26:24.725Z,68.70
2022-09-03T04:28:53.295Z,68.90
2022-09-03T04:31:20.979Z,68.50
2022-09-03T04:33:47.735Z,68.40
2022-09-03T04:36:16.756Z,68.60
2022-09-03T04:38:44.435Z,67.60
2022-09-03T04:41:12.530Z,68.20
2022-09-03T04:43:39.355Z,68.60
2022-09-03T04:46:07.903Z,69.60
2022-09-03T04:48:40.331Z,68.50
2022-09-03T04:51:08.089Z,68.70
2022-09-03T04:53:35.702Z,68.80
2022-09-03T04:56:02.891Z,68.50
2022-09-03T04:58:29.585Z,68.30
2022-09-03T05:00:56.608Z,68.20
2022-09-03T05:03:23.316Z,68.70
2022-09-03T05:05:53.754Z,68.90
2022-09-03T05:08:21.650Z,68.80
2022-09-03T05:10:48.725Z,69.20
2022-09-03T05:13:18.134Z,68.90
2022-09-03T05:15:45.414Z,69.00
2022-09-03T05:18:12.438Z,69.00
2022-09-03T05:20:39.278Z,69.00
2022-09-03T05:23:05.995Z,69.20
2022-09-03T05:25:32.683Z,69.10
2022-09-03T05:27:59.491Z,70.10
2022-09-03T05:30:26.283Z,69.40
2022-09-03T05:32:52.981Z,69.30
2022-09-03T05:35:24.109Z,68.90
2022-09-03T05:37:54.525Z,68.80
2022-09-03T05:40:21.202Z,68.40
2022-09-03T05:42:47.876Z,68.40
2022-09-03T05:45:14.671Z,68.30
2022-09-03T05:47:41.393Z,68.50
2022-09-03T05:50:11.644Z,68.50
2022-09-03T05:52:38.338Z,68.30
2022-09-03T05:55:05.227Z,68.20
2022-09-03T05:57:32.180Z,68.40
2022-09-03T06:00:00.248Z,68.10
2022-09-03T06:02:27.032Z,67.90
2022-09-03T06:04:54.722Z,67.60
2022-09-03T06:07:21.480Z,67.30
2022-09-03T06:09:48.198Z,67.00
2022-09-03T06:12:14.937Z,66.80
2022-09-03T06:14:41.654Z,66.60
2022-09-03T06:17:11.309Z,66.50
2022-09-03T06:19:38.387Z,66.40
2022-09-03T06:22:05.070Z,66.40
2022-09-03T06:24:31.818Z,66.30
2022-09-03T06:26:59.705Z,66.40
2022-09-03T06:29:26.994Z,66.40
2022-09-03T06:31:53.701Z,66.40
2022-09-03T06:34:22.867Z,66.40
2022-09-03T06:36:49.638Z,66.70
2022-09-03T06:39:16.397Z,66.30
2022-09-03T06:41:43.093Z,66.50
2022-09-03T06:44:13.210Z,66.40
2022-09-03T06:46:42.399Z,66.90
2022-09-03T06:49:09.734Z,66.70
2022-09-03T06:51:37.840Z,66.40
2022-09-03T06:54:08.550Z,66.40
2022-09-03T06:56:39.952Z,66.40
2022-09-03T06:59:14.170Z,66.30
2022-09-03T07:01:44.233Z,66.40
2022-09-03T07:04:12.827Z,67.50
2022-09-03T07:06:40.355Z,66.50
2022-09-03T07:09:07.323Z,66.60
2022-09-03T07:11:35.867Z,66.60
2022-09-03T07:14:03.946Z,66.60
2022-09-03T07:16:37.248Z,66.60
2022-09-03T07:19:07.421Z,66.80
2022-09-03T07:21:36.764Z,66.80
2022-09-03T07:24:05.143Z,67.00
2022-09-03T07:26:33.193Z,67.20
2022-09-03T07:29:02.905Z,66.90
2022-09-03T07:31:29.941Z,67.10
2022-09-03T07:33:57.196Z,67.10
2022-09-03T07:36:24.907Z,67.10
2022-09-03T07:38:55.166Z,67.20
2022-09-03T07:41:28.803Z,67.00
2022-09-03T07:43:55.780Z,66.90
2022-09-03T07:46:23.712Z,66.70
2022-09-03T07:48:52.042Z,66.80
2022-09-03T07:51:19.506Z,67.10
2022-09-03T07:53:47.122Z,67.20
2022-09-03T07:56:14.159Z,67.20
2022-09-03T07:58:43.801Z,67.10
2022-09-03T08:01:11.903Z,67.20
2022-09-03T08:03:39.606Z,67.10
2022-09-03T08:06:07.346Z,67.00
2022-09-03T08:08:36.316Z,66.90
2022-09-03T08:11:10.797Z,66.40
2022-09-03T08:13:43.186Z,66.20
2022-09-03T08:16:10.339Z,65.40
2022-09-03T08:18:39.221Z,65.60
2022-09-03T08:21:10.287Z,65.70
2022-09-03T08:23:38.006Z,65.90
2022-09-03T08:26:04.988Z,64.80
2022-09-03T08:28:34.318Z,64.20
2022-09-03T08:31:07.106Z,64.50
2022-09-03T08:33:40.602Z,64.40
2022-09-03T08:36:08.590Z,63.10
2022-09-03T08:38:36.351Z,62.50
2022-09-03T08:41:07.622Z,64.00
2022-09-03T08:43:38.836Z,63.90
2022-09-03T08:46:05.668Z,64.30
2022-09-03T08:48:32.812Z,64.50
2022-09-03T08:51:02.778Z,63.90
2022-09-03T08:53:36.374Z,64.80
2022-09-03T08:56:07.409Z,64.30
2022-09-03T08:58:35.483Z,64.40
2022-09-03T09:01:22.343Z,64.40
2022-09-03T09:03:49.170Z,64.70
2022-09-03T09:06:21.340Z,63.40
2022-09-03T09:09:01.937Z,64.60
2022-09-03T09:11:34.681Z,64.70
2022-09-03T09:14:01.429Z,62.70
2022-09-03T09:16:44.786Z,63.30
2022-09-03T09:19:11.594Z,62.20
2022-09-03T09:21:46.012Z,61.90
2022-09-03T09:24:19.502Z,63.20
2022-09-03T09:26:46.902Z,62.30
2022-09-03T09:29:14.469Z,61.90
2022-09-03T09:31:44.719Z,61.20
2022-09-03T09:34:11.695Z,61.00
2022-09-03T09:36:43.485Z,61.50
2022-09-03T09:39:11.162Z,60.60
2022-09-03T09:41:37.925Z,61.80
2022-09-03T09:44:07.554Z,62.70
2022-09-03T09:46:36.560Z,62.40
2022-09-03T09:49:08.849Z,62.20
2022-09-03T09:51:36.183Z,61.90
2022-09-03T09:54:20.069Z,61.90
2022-09-03T09:56:47.478Z,62.20
2022-09-03T09:59:15.337Z,61.30
2022-09-03T10:01:43.859Z,61.90
2022-09-03T10:04:22.354Z,60.40
2022-09-03T10:06:58.627Z,62.30
2022-09-03T10:09:32.369Z,61.70
2022-09-03T10:12:07.167Z,61.30
2022-09-03T10:14:39.741Z,60.60
2022-09-03T10:17:16.870Z,61.10
2022-09-03T10:20:19.204Z,61.30
2022-09-03T10:22:56.494Z,61.30
2022-09-03T10:25:26.485Z,59.80
2022-09-03T10:27:54.589Z,61.70
2022-09-03T10:30:21.334Z,61.50
2022-09-03T10:32:53.754Z,61.40
2022-09-03T10:35:26.321Z,60.90
2022-09-03T10:38:05.395Z,60.80
2022-09-03T10:40:37.223Z,59.30
2022-09-03T10:43:14.004Z,61.30
2022-09-03T10:46:00.117Z,60.20
2022-09-03T10:48:27.309Z,59.40
2022-09-03T10:50:56.901Z,60.50
2022-09-03T10:53:42.404Z,60.20
2022-09-03T10:56:17.854Z,60.70
2022-09-03T10:59:03.319Z,60.80
2022-09-03T11:01:30.061Z,60.50
2022-09-03T11:04:17.818Z,62.20
2022-09-03T11:06:51.115Z,60.60
2022-09-03T11:09:20.609Z,60.90
2022-09-03T11:11:49.753Z,59.00
2022-09-03T11:14:22.633Z,60.60
2022-09-03T11:16:52.974Z,60.20
2022-09-03T11:19:22.413Z,61.10
2022-09-03T11:21:50.772Z,60.80
2022-09-03T11:24:21.061Z,60.30
2022-09-03T11:26:51.557Z,60.60
2022-09-03T11:29:21.042Z,61.40
2022-09-03T11:31:50.829Z,61.10
2022-09-03T11:34:31.732Z,63.20
2022-09-03T11:37:25.605Z,60.70
2022-09-03T11:39:56.404Z,59.90
2022-09-03T11:42:23.334Z,59.20
2022-09-03T11:44:52.079Z,58.20
2022-09-03T11:47:23.635Z,58.40
2022-09-03T11:49:51.611Z,58.50
2022-09-03T11:52:29.009Z,57.90
2022-09-03T11:54:56.034Z,59.50
2022-09-03T11:57:32.452Z,58.20
2022-09-03T12:00:18.588Z,57.10
2022-09-03T12:02:47.620Z,59.00
2022-09-03T12:05:14.817Z,57.10
2022-09-03T12:07:50.609Z,54.40
2022-09-03T12:10:34.971Z,52.50
2022-09-03T12:13:19.064Z,57.40
2022-09-03T12:16:06.074Z,55.40
2022-09-03T12:18:33.855Z,52.20
2022-09-03T12:21:00.519Z,52.90
2022-09-03T12:23:29.702Z,55.10
2022-09-03T12:25:58.600Z,60.40
2022-09-03T12:28:26.739Z,60.50
2022-09-03T12:30:53.823Z,62.00
2022-09-03T12:33:21.746Z,62.90
2022-09-03T12:35:59.321Z,63.90
2022-09-03T12:38:27.525Z,64.10
2022-09-03T12:43:45.070Z,63.60
2022-09-03T12:46:15.294Z,64.50
2022-09-03T12:51:56.953Z,63.50
2022-09-03T12:54:25.326Z,60.40
2022-09-03T12:56:57.389Z,58.30
2022-09-03T12:59:26.546Z,63.70
2022-09-03T13:01:55.223Z,64.50
2022-09-03T13:04:26.850Z,64.10
2022-09-03T13:06:54.056Z,63.70
2022-09-03T13:09:23.302Z,63.90
2022-09-03T13:11:52.409Z,63.60
2022-09-03T13:14:20.081Z,63.10
2022-09-03T13:16:47.125Z,62.80
2022-09-03T13:19:32.558Z,63.30
2022-09-03T13:22:11.585Z,63.40
2022-09-03T13:24:44.207Z,63.60
2022-09-03T13:27:26.213Z,63.40
2022-09-03T13:29:58.666Z,62.40
2022-09-03T13:32:40.674Z,62.60
2022-09-03T13:35:11.719Z,59.60
2022-09-03T13:37:41.287Z,60.00
2022-09-03T13:40:16.037Z,62.20
2022-09-03T13:42:45.706Z,62.30
2022-09-03T13:45:28.408Z,62.70
2022-09-03T13:48:25.790Z,63.30
2022-09-03T13:50:59.961Z,63.10
2022-09-03T13:53:32.629Z,63.20
2022-09-03T13:56:06.839Z,63.30
2022-09-03T13:58:45.271Z,63.20
2022-09-03T14:01:21.359Z,63.40
2022-09-03T14:03:49.092Z,62.70
2022-09-03T14:06:29.261Z,61.70
2022-09-03T14:09:14.293Z,62.10
2022-09-03T14:11:59.509Z,62.70
2022-09-03T14:14:34.822Z,63.00
2022-09-03T14:17:21.720Z,63.20
2022-09-03T14:19:52.035Z,62.90
2022-09-03T14:22:27.110Z,60.90
2022-09-03T14:24:53.837Z,62.50
2022-09-03T14:27:25.375Z,63.30
2022-09-03T14:29:58.763Z,61.70
2022-09-03T14:32:28.690Z,62.40
2022-09-03T14:34:58.279Z,61.70
2022-09-03T14:37:30.956Z,62.50
2022-09-03T14:40:13.511Z,62.80
2022-09-03T14:42:59.315Z,61.90
2022-09-03T14:45:26.042Z,62.30
2022-09-03T14:48:11.321Z,61.90
2022-09-03T14:50:50.374Z,62.40
2022-09-03T14:53:40.407Z,62.80
2022-09-03T14:56:26.361Z,63.30
2022-09-03T14:59:02.080Z,61.30
2022-09-03T15:01:31.451Z,63.00
2022-09-03T15:04:05.302Z,61.50
2022-09-03T15:06:47.471Z,62.60
2022-09-03T15:09:33.297Z,63.20
2022-09-03T15:12:05.669Z,62.90
2022-09-03T15:14:41.418Z,62.10
2022-09-03T15:17:20.183Z,62.50
2022-09-03T15:19:46.803Z,60.90
2022-09-03T15:22:32.203Z,61.60
2022-09-03T15:24:59.147Z,62.20
2022-09-03T15:27:55.476Z,61.50
2022-09-03T15:30:22.206Z,61.10
2022-09-03T15:32:57.743Z,61.10
2022-09-03T15:35:40.246Z,60.90
2022-09-03T15:38:10.962Z,61.00
2022-09-03T15:40:40.734Z,60.80
2022-09-03T15:43:22.550Z,61.30
2022-09-03T15:45:49.352Z,60.50
2022-09-03T15:48:22.713Z,60.30
2022-09-03T15:50:49.412Z,60.70
2022-09-03T15:53:40.067Z,61.20
2022-09-03T15:56:23.095Z,61.60
2022-09-03T15:58:57.911Z,61.80
2022-09-03T16:01:34.572Z,61.80
2022-09-03T16:04:17.369Z,61.00
2022-09-03T16:06:53.555Z,61.50
2022-09-03T16:09:25.762Z,61.60
2022-09-03T16:11:58.306Z,61.70
2022-09-03T16:14:34.737Z,61.60
2022-09-03T16:17:13.908Z,62.10
2022-09-03T16:19:40.566Z,62.50
2022-09-03T16:22:27.490Z,61.90
2022-09-03T16:24:59.139Z,61.20
2022-09-03T16:27:30.680Z,61.70
2022-09-03T16:30:00.451Z,61.80
2022-09-03T16:32:29.891Z,62.10
2022-09-03T16:34:56.718Z,61.80
2022-09-03T16:37:35.517Z,61.40
2022-09-03T16:40:02.315Z,61.40
2022-09-03T16:42:29.192Z,61.80
2022-09-03T16:44:59.702Z,62.10
2022-09-03T16:47:29.103Z,62.10
2022-09-03T16:50:05.370Z,62.30
2022-09-03T16:52:38.597Z,62.50
2022-09-03T16:55:32.155Z,61.00
2022-09-03T16:58:11.250Z,62.10
2022-09-03T17:00:47.997Z,61.90
2022-09-03T17:03:33.061Z,62.30
2022-09-03T17:06:18.742Z,62.30
2022-09-03T17:08:51.660Z,62.70
2022-09-03T17:11:21.478Z,62.90
2022-09-03T17:13:59.376Z,62.70
2022-09-03T17:16:39.949Z,62.70
2022-09-03T17:19:11.883Z,62.40
2022-09-03T17:21:47.195Z,62.90
2022-09-03T17:24:23.442Z,62.90
2022-09-03T17:26:55.477Z,63.00
2022-09-03T17:29:35.141Z,63.30
2022-09-03T17:32:21.221Z,63.50
2022-09-03T17:34:47.895Z,63.40
2022-09-03T17:37:21.946Z,63.50
2022-09-03T17:39:54.886Z,63.60
2022-09-03T17:42:49.187Z,63.70
2022-09-03T17:45:21.926Z,64.00
2022-09-03T17:48:05.527Z,64.20
2022-09-03T17:50:43.639Z,64.40
2022-09-03T17:53:16.066Z,64.10
2022-09-03T17:55:53.207Z,63.30
2022-09-03T17:58:31.888Z,63.30
2022-09-03T18:01:01.315Z,63.80
2022-09-03T18:03:32.903Z,63.60
2022-09-03T18:06:06.274Z,63.40
2022-09-03T18:08:42.150Z,63.70
2022-09-03T18:11:19.219Z,63.60
2022-09-03T18:13:49.009Z,63.80
2022-09-03T18:16:23.365Z,63.70
2022-09-03T18:18:51.345Z,63.80
2022-09-03T18:21:40.894Z,63.90
2022-09-03T18:24:26.325Z,63.80
2022-09-03T18:27:22.829Z,63.70
2022-09-03T18:30:23.393Z,63.60
2022-09-03T18:33:08.861Z,63.90
2022-09-03T18:35:54.779Z,64.20
2022-09-03T18:38:43.173Z,64.50
2022-09-03T18:41:42.403Z,65.10
2022-09-03T18:44:34.388Z,64.90
2022-09-03T18:50:48.427Z,64.80
2022-09-03T18:53:36.425Z,65.40
2022-09-03T18:56:34.712Z,65.00
2022-09-03T18:59:27.805Z,65.00
2022-09-03T19:02:13.251Z,64.90
2022-09-03T19:05:01.565Z,65.60
2022-09-03T19:07:47.098Z,65.00
2022-09-03T19:10:41.266Z,65.20
2022-09-03T19:13:37.716Z,65.20
2022-09-03T19:16:26.195Z,65.00
2022-09-03T19:19:31.371Z,64.90
2022-09-03T19:22:26.489Z,65.00
2022-09-03T19:25:14.711Z,65.10
2022-09-03T19:28:23.439Z,65.10
2022-09-03T19:31:27.744Z,65.20
2022-09-03T19:34:39.590Z,65.30
2022-09-03T19:37:37.186Z,65.30
2022-09-03T19:40:25.696Z,65.40
2022-09-03T19:43:22.193Z,65.30
2022-09-03T19:46:10.949Z,65.30
2022-09-03T19:49:05.722Z,65.50
2022-09-03T19:51:54.295Z,65.30
2022-09-03T19:54:41.825Z,65.60
2022-09-03T19:57:27.980Z,65.50
2022-09-03T20:00:13.325Z,65.40
2022-09-03T20:03:04.542Z,65.40
2022-09-03T20:05:50.782Z,65.20
2022-09-03T20:08:36.330Z,65.30
2022-09-03T20:11:04.319Z,64.80
2022-09-03T20:13:51.162Z,65.00
2022-09-03T20:16:23.475Z,65.00
2022-09-03T20:18:56.658Z,65.30
2022-09-03T20:21:23.541Z,65.10
2022-09-03T20:24:11.193Z,65.10
2022-09-03T20:26:48.539Z,65.30
2022-09-03T20:29:30.183Z,65.20
2022-09-03T20:32:09.075Z,65.60
2022-09-03T20:34:44.068Z,65.50
2022-09-03T20:37:10.775Z,65.30
2022-09-03T20:39:45.417Z,65.30
2022-09-03T20:42:12.118Z,65.50
2022-09-03T20:44:59.708Z,65.40
2022-09-03T20:47:26.653Z,65.70
2022-09-03T20:50:14.955Z,65.70
2022-09-03T20:52:57.399Z,65.50
2022-09-03T20:55:28.029Z,65.70
2022-09-03T20:57:58.523Z,65.60
2022-09-03T21:00:26.497Z,65.50
2022-09-03T21:03:03.820Z,65.20
2022-09-03T21:05:38.207Z,65.40
2022-09-03T21:08:16.490Z,65.50
2022-09-03T21:10:46.258Z,65.50
2022-09-03T21:13:25.592Z,65.60
2022-09-03T21:16:00.934Z,65.50
2022-09-03T21:18:46.426Z,65.40
2022-09-03T21:21:20.217Z,65.40
2022-09-03T21:23:48.774Z,65.50
2022-09-03T21:26:21.452Z,65.40
2022-09-03T21:29:03.731Z,65.40
2022-09-03T21:31:38.569Z,65.90
2022-09-03T21:34:11.162Z,65.50
2022-09-03T21:36:38.401Z,65.30
2022-09-03T21:39:23.917Z,65.20
2022-09-03T21:41:57.904Z,65.30
2022-09-03T21:44:39.934Z,66.40
2022-09-03T21:47:09.839Z,65.50
2022-09-03T21:49:42.906Z,65.40
2022-09-03T21:52:12.896Z,65.30
2022-09-03T21:54:39.734Z,65.30
2022-09-03T21:57:14.019Z,65.30
2022-09-03T21:59:55.830Z,65.10
2022-09-03T22:02:26.494Z,65.30
2022-09-03T22:04:54.522Z,65.20
2022-09-03T22:07:40.179Z,65.40
2022-09-03T22:10:07.222Z,65.50
2022-09-03T22:12:39.366Z,65.40
2022-09-03T22:15:13.256Z,65.20
2022-09-03T22:17:54.507Z,65.30
2022-09-03T22:20:23.163Z,65.40
2022-09-03T22:22:57.716Z,65.20
2022-09-03T22:25:31.373Z,65.50
2022-09-03T22:28:03.359Z,65.40
2022-09-03T22:30:34.662Z,65.40
2022-09-03T22:33:06.535Z,65.20
2022-09-03T22:35:36.317Z,65.30
2022-09-03T22:38:08.835Z,65.10
2022-09-03T22:40:35.599Z,65.30
2022-09-03T22:43:08.262Z,65.10
2022-09-03T22:45:35.032Z,65.20
2022-09-03T22:48:07.631Z,65.20
2022-09-03T22:50:41.053Z,65.40
2022-09-03T22:53:13.554Z,65.60
2022-09-03T22:55:45.410Z,66.10
2022-09-03T22:58:14.783Z,66.00
2022-09-03T23:00:44.555Z,66.50
2022-09-03T23:03:14.636Z,66.60
2022-09-03T23:05:50.405Z,66.50
2022-09-03T23:08:21.949Z,66.50
2022-09-03T23:10:53.579Z,66.50
2022-09-03T23:13:22.383Z,66.50
2022-09-03T23:16:00.437Z,66.60
2022-09-03T23:18:29.422Z,66.50
2022-09-03T23:20:56.065Z,66.40
2022-09-03T23:23:25.684Z,66.40
2022-09-03T23:25:59.768Z,66.50
2022-09-03T23:28:36.523Z,66.50
2022-09-03T23:31:23.461Z,66.50
2022-09-03T23:33:52.192Z,66.50
2022-09-03T23:36:57.765Z,66.50
2022-09-03T23:39:28.291Z,66.50
2022-09-03T23:42:04.338Z,66.60
2022-09-03T23:44:31.087Z,66.60
2022-09-03T23:47:10.098Z,66.70
2022-09-03T23:49:59.104Z,66.60
2022-09-03T23:52:25.749Z,66.60
2022-09-03T23:54:52.527Z,66.80
2022-09-03T23:57:22.463Z,66.80
2022-09-03T23:59:55.774Z,66.70
